createdAt,value
2023-04-18T00:00:00.677Z,0
2023-04-18T00:16:02.881Z,0
2023-04-18T00:30:59.972Z,0
2023-04-18T00:46:02.201Z,0
2023-04-18T01:00:04.062Z,0
2023-04-18T01:16:01.415Z,0
2023-04-18T01:31:03.568Z,0
2023-04-18T01:46:00.601Z,0
2023-04-18T02:00:02.788Z,0
2023-04-18T02:16:00.126Z,0
2023-04-18T02:31:02.232Z,0
2023-04-18T02:46:04.522Z,0
2023-04-18T03:00:01.291Z,0
2023-04-18T03:16:03.671Z,0
2023-04-18T03:31:00.686Z,0
2023-04-18T03:46:03.007Z,0
2023-04-18T04:00:00.010Z,0
2023-04-18T04:16:02.406Z,0
2023-04-18T04:31:04.453Z,7
2023-04-18T04:46:01.661Z,26
2023-04-18T05:00:03.515Z,48
2023-04-18T05:16:00.805Z,77
2023-04-18T05:31:02.900Z,94
2023-04-18T05:45:59.994Z,126
2023-04-18T06:00:02.335Z,190
2023-04-18T06:16:04.471Z,196
2023-04-18T06:31:01.753Z,151
2023-04-18T06:46:04.065Z,124
2023-04-18T07:00:00.777Z,135
2023-04-18T07:16:02.966Z,167
2023-04-18T07:30:59.997Z,198
2023-04-18T07:46:02.206Z,198
2023-04-18T08:00:04.119Z,118
2023-04-18T08:16:01.282Z,134
2023-04-18T08:31:03.454Z,216
2023-04-18T08:46:00.779Z,277
2023-04-18T09:00:02.810Z,422
2023-04-18T09:16:00.242Z,410
2023-04-18T09:31:02.401Z,386
2023-04-18T09:46:04.628Z,426
2023-04-18T10:00:01.398Z,459
2023-04-18T10:16:03.558Z,508
2023-04-18T10:31:00.580Z,616
2023-04-18T10:46:02.767Z,568
2023-04-18T11:00:04.814Z,531
2023-04-18T11:16:02.252Z,391
2023-04-18T11:31:04.231Z,258
2023-04-18T11:46:01.482Z,271
2023-04-18T12:00:03.654Z,296
2023-04-18T12:16:01.104Z,300
2023-04-18T12:31:03.261Z,555
2023-04-18T12:46:00.566Z,550
2023-04-18T13:00:02.625Z,394
2023-04-18T13:16:16.675Z,386
2023-04-18T13:31:02.022Z,360
2023-04-18T13:46:04.208Z,363
2023-04-18T14:00:01.117Z,464
2023-04-18T14:16:03.524Z,417
2023-04-18T14:31:00.792Z,367
2023-04-18T14:46:02.940Z,261
2023-04-18T15:00:04.723Z,211
2023-04-18T15:16:01.880Z,172
2023-04-18T15:31:04.085Z,139
2023-04-18T15:46:01.275Z,114
2023-04-18T16:00:03.281Z,95
2023-04-18T16:16:00.498Z,88
2023-04-18T16:31:02.715Z,70
2023-04-18T16:45:59.791Z,46
2023-04-18T17:00:01.856Z,32
2023-04-18T17:16:04.235Z,23
2023-04-18T17:31:01.260Z,15
2023-04-18T17:46:03.426Z,9
2023-04-18T18:00:00.378Z,2
2023-04-18T18:16:02.671Z,0
2023-04-18T18:31:04.656Z,0
2023-04-18T18:46:01.838Z,0
2023-04-18T19:00:03.747Z,0
2023-04-18T19:16:01.165Z,0
2023-04-18T19:31:03.307Z,0
2023-04-18T19:46:00.792Z,0
2023-04-18T20:00:02.835Z,0
2023-04-18T20:16:00.336Z,0
2023-04-18T20:31:02.303Z,0
2023-04-18T20:46:04.564Z,0
2023-04-18T21:00:01.522Z,0
2023-04-18T21:16:03.945Z,0
2023-04-18T21:31:00.935Z,0
2023-04-18T21:46:03.010Z,0
2023-04-18T22:00:00.284Z,0
2023-04-18T22:16:02.200Z,0
2023-04-18T22:31:04.306Z,0
2023-04-18T22:46:01.462Z,0
2023-04-18T23:00:03.463Z,0
2023-04-18T23:16:00.890Z,0
2023-04-18T23:31:02.967Z,0
2023-04-18T23:46:00.177Z,0
